Time;durP1;ratioP1;P1;durP2;ratioP2;P2;SDS_P1;SDS_P2;PMS_P1;PMS_P2;Temp;Humidity;BMP_temperature;BMP_pressure;BME280_temperature;BME280_humidity;BME280_pressure;Samples;Min_cycle;Max_cycle;Signal;HPM_P1;HPM_P2
2022/01/29 00:02:12;;;;;;;17.10;10.27;;;;;;;8.63;74.63;103017.16;5035574;28;20048;-66
2022/01/29 00:04:40;;;;;;;16.10;9.88;;;;;;;8.56;74.82;103024.69;5036121;28;20544;-65
2022/01/29 00:07:09;;;;;;;16.73;10.13;;;;;;;8.54;74.96;103018.59;5036447;28;20049;-65
2022/01/29 00:09:36;;;;;;;16.73;9.73;;;;;;;8.51;74.78;103013.59;5018634;28;20057;-64
2022/01/29 00:12:04;;;;;;;17.67;10.50;;;;;;;8.35;75.77;103011.63;5049027;28;20052;-65
2022/01/29 00:14:32;;;;;;;14.82;9.93;;;;;;;8.44;75.54;103014.84;5056521;28;20053;-64
2022/01/29 00:16:59;;;;;;;17.85;9.57;;;;;;;8.60;74.64;103016.81;5038499;28;20057;-65
2022/01/29 00:19:26;;;;;;;15.82;8.90;;;;;;;8.54;74.53;103009.56;5049088;28;20057;-65
2022/01/29 00:21:53;;;;;;;15.55;9.70;;;;;;;8.69;74.39;103007.94;5036649;28;20053;-65
2022/01/29 00:24:21;;;;;;;16.92;10.15;;;;;;;8.47;74.48;102998.69;5036408;28;20053;-64
2022/01/29 00:26:48;;;;;;;16.65;9.00;;;;;;;8.29;75.03;102987.91;5036294;28;20048;-64
2022/01/29 00:29:21;;;;;;;15.80;9.15;;;;;;;8.36;75.01;102990.50;5018277;28;20053;-65
2022/01/29 00:31:49;;;;;;;13.32;8.88;;;;;;;8.43;75.05;102985.69;5001843;28;20060;-65
2022/01/29 00:34:16;;;;;;;17.20;9.63;;;;;;;8.52;74.67;102978.75;5035548;28;20617;-65
2022/01/29 00:36:44;;;;;;;16.48;9.18;;;;;;;8.50;74.71;102978.16;5036338;28;20053;-64
2022/01/29 00:39:11;;;;;;;16.23;9.57;;;;;;;8.45;74.56;102976.16;5018511;28;20492;-64
2022/01/29 00:41:38;;;;;;;13.48;9.00;;;;;;;8.58;74.37;102970.34;5017799;28;20372;-64
2022/01/29 00:44:05;;;;;;;15.68;9.57;;;;;;;8.45;74.41;102976.16;5018629;28;20056;-65
2022/01/29 00:46:33;;;;;;;14.98;9.68;;;;;;;8.24;75.32;102971.31;5036187;28;20104;-65
2022/01/29 00:49:00;;;;;;;18.35;9.30;;;;;;;8.16;75.99;102963.41;5034439;28;20057;-64
2022/01/29 00:51:28;;;;;;;15.32;9.57;;;;;;;8.51;75.32;102955.09;5035660;28;20045;-64
2022/01/29 00:53:55;;;;;;;15.25;9.13;;;;;;;8.54;74.86;102955.44;5035898;28;20053;-65
2022/01/29 00:56:22;;;;;;;20.17;9.18;;;;;;;8.46;75.04;102963.22;5035397;28;20183;-65
2022/01/29 00:58:49;;;;;;;16.83;9.55;;;;;;;8.24;76.05;102957.59;5004164;28;20058;-63
2022/01/29 01:01:17;;;;;;;15.02;9.43;;;;;;;8.23;76.34;102963.31;5031928;28;20057;-65
2022/01/29 01:03:44;;;;;;;15.35;9.15;;;;;;;8.40;76.49;102961.47;5034439;28;20453;-64
2022/01/29 01:06:11;;;;;;;15.93;9.65;;;;;;;8.07;76.55;102955.81;5031637;28;20054;-64
2022/01/29 01:08:39;;;;;;;16.08;9.40;;;;;;;8.15;77.41;102945.28;5034888;28;20500;-64
2022/01/29 01:11:06;;;;;;;15.68;9.43;;;;;;;8.19;77.50;102956.63;5035287;28;20518;-64
2022/01/29 01:13:34;;;;;;;15.77;9.45;;;;;;;8.24;76.93;102949.38;5049980;28;20057;-65
2022/01/29 01:16:02;;;;;;;16.58;10.10;;;;;;;8.24;77.57;102943.03;5046582;28;20042;-64
2022/01/29 01:18:30;;;;;;;19.35;10.30;;;;;;;8.21;77.64;102946.22;5033965;28;20408;-65
2022/01/29 01:20:57;;;;;;;18.60;9.57;;;;;;;8.14;78.30;102942.78;5035340;28;20061;-65
2022/01/29 01:23:24;;;;;;;16.33;9.90;;;;;;;8.10;78.50;102930.63;5032865;28;20041;-65
2022/01/29 01:25:51;;;;;;;17.02;10.27;;;;;;;8.26;78.78;102946.38;5033878;28;20049;-61
2022/01/29 01:28:19;;;;;;;17.80;10.35;;;;;;;8.25;78.56;102951.00;5033052;28;20061;-62
2022/01/29 01:30:46;;;;;;;18.65;10.35;;;;;;;8.07;79.31;102942.94;5032936;28;20053;-62
2022/01/29 01:33:13;;;;;;;16.65;10.25;;;;;;;8.01;80.25;102946.63;5031545;28;20048;-62
2022/01/29 01:35:48;;;;;;;17.33;10.32;;;;;;;8.12;79.62;102942.19;5035181;28;20060;-61
2022/01/29 01:38:21;;;;;;;15.02;9.90;;;;;;;8.11;80.42;102946.84;5034237;28;20045;-62
2022/01/29 01:40:54;;;;;;;16.08;9.65;;;;;;;8.28;79.85;102945.03;5013819;28;20057;-62
2022/01/29 01:43:22;;;;;;;17.05;10.20;;;;;;;8.22;80.15;102943.25;5028952;28;20076;-62
2022/01/29 01:45:50;;;;;;;15.98;9.65;;;;;;;8.34;79.92;102946.81;5020415;28;20045;-62
2022/01/29 01:48:17;;;;;;;15.32;10.00;;;;;;;8.43;79.29;102939.00;5016627;28;20507;-62
2022/01/29 01:50:44;;;;;;;16.50;10.50;;;;;;;8.32;80.12;102928.91;5034194;28;20041;-62
2022/01/29 01:53:12;;;;;;;14.57;9.07;;;;;;;8.35;80.46;102939.41;5033294;28;20444;-62
2022/01/29 01:55:39;;;;;;;19.80;10.98;;;;;;;8.33;80.82;102933.34;5033688;28;20056;-62
2022/01/29 01:58:07;;;;;;;16.30;9.95;;;;;;;8.38;80.60;102931.53;5034193;28;20050;-62
2022/01/29 02:00:34;;;;;;;14.65;9.07;;;;;;;8.20;81.23;102933.56;5033111;28;20053;-62
2022/01/29 02:03:01;;;;;;;17.38;10.48;;;;;;;8.27;81.63;102928.81;5034012;28;20046;-62
2022/01/29 02:05:29;;;;;;;15.90;8.82;;;;;;;8.31;81.29;102919.00;5039777;28;20064;-62
2022/01/29 02:07:57;;;;;;;15.57;9.90;;;;;;;8.34;81.33;102924.00;5016907;28;20507;-62
2022/01/29 02:10:26;;;;;;;17.25;9.35;;;;;;;8.57;80.45;102912.91;5037374;28;20508;-63
2022/01/29 02:12:57;;;;;;;16.13;9.88;;;;;;;8.75;79.17;102915.47;5040915;28;20500;-62
2022/01/29 02:15:25;;;;;;;15.65;9.90;;;;;;;8.33;80.59;102911.38;5023964;28;20060;-61
2022/01/29 02:17:53;;;;;;;18.50;9.60;;;;;;;8.38;81.22;102911.47;5040676;28;20045;-61
2022/01/29 02:20:23;;;;;;;18.55;9.25;;;;;;;8.17;82.12;102909.34;5023384;28;20050;-62
2022/01/29 02:22:50;;;;;;;16.65;9.35;;;;;;;7.93;83.05;102908.63;5041215;28;20053;-61
2022/01/29 02:25:30;;;;;;;17.60;10.95;;;;;;;8.02;83.69;102906.31;5035802;28;20052;-61
2022/01/29 02:28:07;;;;;;;17.08;10.77;;;;;;;7.80;84.10;102901.47;5023919;28;20049;-61
2022/01/29 02:30:38;;;;;;;19.02;9.75;;;;;;;7.76;84.66;102899.44;5035509;28;20524;-61
2022/01/29 02:33:10;;;;;;;17.65;10.25;;;;;;;7.92;84.51;102891.31;5030478;28;20516;-61
2022/01/29 02:35:46;;;;;;;15.07;10.18;;;;;;;7.75;84.60;102893.16;5052186;28;20431;-62
2022/01/29 02:38:15;;;;;;;19.92;10.40;;;;;;;7.91;85.13;102886.88;5025284;28;20049;-61
2022/01/29 02:40:46;;;;;;;17.92;10.15;;;;;;;7.87;84.50;102887.63;5022340;28;20062;-62
2022/01/29 02:43:17;;;;;;;20.33;10.10;;;;;;;7.94;84.97;102866.38;5041050;28;20547;-62
2022/01/29 02:45:45;;;;;;;16.00;9.80;;;;;;;8.18;84.25;102869.84;5022977;28;20058;-63
2022/01/29 02:48:13;;;;;;;14.07;9.63;;;;;;;7.90;84.43;102867.91;5039980;28;20049;-61
2022/01/29 02:50:41;;;;;;;13.77;9.15;;;;;;;7.80;85.40;102870.47;5022142;28;20412;-62
2022/01/29 02:53:09;;;;;;;14.57;8.90;;;;;;;8.03;85.21;102859.41;5005431;28;20050;-62
2022/01/29 02:55:37;;;;;;;14.50;9.95;;;;;;;7.91;84.81;102855.88;5022863;28;20049;-62
2022/01/29 02:58:04;;;;;;;15.88;9.73;;;;;;;8.22;84.76;102846.31;5040797;28;20057;-61
2022/01/29 03:00:32;;;;;;;17.05;9.60;;;;;;;8.12;84.18;102844.22;5039585;28;20049;-61
2022/01/29 03:03:00;;;;;;;14.20;8.73;;;;;;;8.07;84.03;102841.41;5039626;28;20060;-62
2022/01/29 03:05:27;;;;;;;13.85;9.23;;;;;;;7.99;84.66;102837.13;5039367;28;20053;-61
2022/01/29 03:07:55;;;;;;;14.48;9.27;;;;;;;7.88;85.82;102835.25;5040540;28;20052;-61
2022/01/29 03:10:25;;;;;;;14.02;9.65;;;;;;;7.97;85.41;102827.44;5040488;28;20041;-62
2022/01/29 03:12:53;;;;;;;15.40;9.20;;;;;;;7.86;85.68;102826.41;5020538;28;20518;-62
2022/01/29 03:15:20;;;;;;;13.98;8.73;;;;;;;7.85;86.08;102829.41;5039606;28;20056;-63
2022/01/29 03:17:48;;;;;;;13.27;8.90;;;;;;;7.99;86.00;102828.88;5022272;28;20096;-61
2022/01/29 03:20:15;;;;;;;15.40;9.75;;;;;;;8.00;85.83;102821.50;5035883;28;20068;-62
2022/01/29 03:22:43;;;;;;;15.50;8.70;;;;;;;8.04;85.59;102830.88;5036671;28;20042;-61
2022/01/29 03:25:10;;;;;;;14.20;8.80;;;;;;;8.16;85.40;102823.44;5036240;28;20520;-62
2022/01/29 03:27:38;;;;;;;13.63;8.60;;;;;;;7.98;85.85;102820.91;5036573;28;20084;-62
2022/01/29 03:30:06;;;;;;;13.25;8.75;;;;;;;8.13;85.58;102820.34;5035884;28;20050;-61
2022/01/29 03:32:33;;;;;;;16.00;9.20;;;;;;;7.95;86.26;102833.19;5018676;28;20045;-63
2022/01/29 03:35:01;;;;;;;13.77;8.95;;;;;;;7.94;86.66;102814.22;5035047;28;20053;-61
2022/01/29 03:37:28;;;;;;;12.70;9.38;;;;;;;8.08;86.18;102812.00;5034182;28;20057;-61
2022/01/29 03:40:00;;;;;;;13.15;9.00;;;;;;;7.96;86.59;102825.78;5002262;28;20060;-61
2022/01/29 03:42:31;;;;;;;15.15;9.40;;;;;;;7.93;86.80;102834.53;5020354;28;20049;-61
2022/01/29 03:44:58;;;;;;;13.15;8.68;;;;;;;8.05;86.70;102827.06;5037347;28;20057;-61
2022/01/29 03:47:25;;;;;;;13.15;8.55;;;;;;;8.15;86.21;102829.16;5036476;28;20068;-62
2022/01/29 03:49:53;;;;;;;14.13;8.98;;;;;;;8.18;85.82;102826.75;5035370;28;20052;-61
2022/01/29 03:52:20;;;;;;;14.13;8.93;;;;;;;8.20;85.74;102823.75;5018525;28;20053;-62
2022/01/29 03:54:47;;;;;;;13.30;8.55;;;;;;;8.17;85.81;102822.38;5036361;28;20050;-63
2022/01/29 03:57:15;;;;;;;14.15;9.60;;;;;;;8.51;84.46;102817.75;5036362;28;20049;-61
2022/01/29 03:59:42;;;;;;;13.15;8.25;;;;;;;8.23;85.50;102813.13;5036673;28;20049;-62
2022/01/29 04:02:09;;;;;;;13.82;9.63;;;;;;;8.34;85.08;102815.00;5017952;28;20044;-62
2022/01/29 04:04:37;;;;;;;15.13;9.45;;;;;;;8.34;85.18;102815.00;5036290;28;20068;-61
2022/01/29 04:07:10;;;;;;;13.27;9.40;;;;;;;8.35;85.29;102824.91;5036531;28;20504;-62
2022/01/29 04:09:39;;;;;;;14.80;9.30;;;;;;;8.26;85.91;102822.81;5036401;28;20058;-61
2022/01/29 04:12:06;;;;;;;12.40;9.00;;;;;;;8.37;85.35;102824.69;5021180;28;20041;-65
2022/01/29 04:14:38;;;;;;;13.48;9.32;;;;;;;8.29;85.41;102820.41;5040388;28;20435;-64
2022/01/29 04:17:07;;;;;;;12.00;8.80;;;;;;;8.48;85.76;102813.63;5036070;28;20637;-65
2022/01/29 04:19:35;;;;;;;12.75;8.90;;;;;;;8.39;86.03;102806.03;5035963;28;20045;-64
2022/01/29 04:22:03;;;;;;;13.00;8.85;;;;;;;8.33;86.09;102813.38;5035138;28;20057;-64
2022/01/29 04:24:31;;;;;;;13.80;9.35;;;;;;;8.24;86.12;102806.59;5016270;28;20160;-65
2022/01/29 04:27:00;;;;;;;14.57;9.65;;;;;;;8.52;86.11;102803.81;5018064;28;20633;-64
2022/01/29 04:29:36;;;;;;;13.18;8.48;;;;;;;8.39;85.91;102808.75;5035344;28;20045;-64
2022/01/29 04:32:19;;;;;;;13.18;9.18;;;;;;;8.25;86.95;102813.75;5035436;28;20045;-64
2022/01/29 04:34:46;;;;;;;15.98;9.35;;;;;;;8.37;87.45;102813.69;5035088;28;20056;-64
2022/01/29 04:37:13;;;;;;;13.57;9.13;;;;;;;8.38;87.80;102813.44;5036112;28;20068;-65
2022/01/29 04:39:40;;;;;;;13.68;8.90;;;;;;;8.49;86.37;102820.75;5035289;28;20061;-64
2022/01/29 04:42:08;;;;;;;13.75;9.45;;;;;;;8.58;86.83;102812.94;5035740;28;20064;-64
2022/01/29 04:44:35;;;;;;;13.55;9.63;;;;;;;8.42;86.59;102814.59;5035051;28;20052;-64
2022/01/29 04:47:02;;;;;;;16.48;8.77;;;;;;;8.45;86.88;102802.28;5035400;28;20062;-64
2022/01/29 04:49:30;;;;;;;12.48;8.60;;;;;;;8.43;86.99;102810.78;5035163;28;20049;-65
2022/01/29 04:51:57;;;;;;;13.65;9.60;;;;;;;8.58;86.65;102808.28;5034468;28;20436;-64
2022/01/29 04:54:24;;;;;;;12.32;8.48;;;;;;;8.53;86.96;102810.97;5034653;28;20048;-64
2022/01/29 04:56:51;;;;;;;13.48;8.40;;;;;;;8.64;86.34;102806.47;5035218;28;20057;-64
2022/01/29 04:59:19;;;;;;;17.55;8.48;;;;;;;8.55;86.34;102805.22;5016924;28;20045;-65
2022/01/29 05:01:46;;;;;;;11.82;8.35;;;;;;;8.53;87.20;102810.97;5016168;28;20057;-65
2022/01/29 05:04:13;;;;;;;14.73;8.50;;;;;;;8.52;87.02;102809.31;5034968;28;20053;-65
2022/01/29 05:06:40;;;;;;;15.45;9.57;;;;;;;8.63;86.29;102807.56;5035333;28;20523;-65
2022/01/29 05:09:09;;;;;;;13.38;8.82;;;;;;;8.56;87.13;102810.44;5035621;28;20543;-64
2022/01/29 05:11:37;;;;;;;13.43;8.90;;;;;;;8.79;86.51;102807.53;5035413;28;20057;-65
2022/01/29 05:14:08;;;;;;;16.10;8.63;;;;;;;8.80;85.97;102811.94;5035296;28;20049;-65
2022/01/29 05:27:25;;;;;;;;;;;;;;;8.64;85.69;102809.22;5001372;28;20060;-60
2022/01/29 05:29:52;;;;;;;13.32;9.13;;;;;;;8.78;86.76;102813.28;5035124;28;19921;-61
2022/01/29 05:32:22;;;;;;;19.02;10.07;;;;;;;8.60;86.86;102816.28;5034323;28;20045;-61
2022/01/29 05:34:49;;;;;;;15.20;9.63;;;;;;;8.75;86.54;102813.81;5034170;28;20049;-61
2022/01/29 05:37:36;;;;;;;13.75;9.48;;;;;;;8.91;85.86;102808.28;5034257;28;20058;-61
2022/01/29 05:40:04;;;;;;;14.93;9.95;;;;;;;8.99;85.47;102816.13;5034496;28;20057;-61
2022/01/29 05:42:31;;;;;;;13.77;9.27;;;;;;;8.84;85.81;102815.88;5017346;28;20049;-61
2022/01/29 05:44:58;;;;;;;14.63;10.05;;;;;;;8.64;86.62;102806.47;5034859;28;20045;-61
2022/01/29 05:47:25;;;;;;;14.93;9.85;;;;;;;8.60;87.11;102799.78;5017097;28;20504;-61
2022/01/29 05:49:53;;;;;;;13.57;9.65;;;;;;;8.94;86.34;102793.22;5034337;28;20496;-62
2022/01/29 05:52:20;;;;;;;15.18;9.98;;;;;;;8.87;86.17;102795.31;5034411;28;20052;-61
2022/01/29 05:54:48;;;;;;;15.32;9.70;;;;;;;8.81;86.40;102794.38;5034792;28;20049;-63
2022/01/29 05:57:16;;;;;;;15.80;9.70;;;;;;;8.92;86.16;102798.97;5034447;28;20049;-62
2022/01/29 05:59:44;;;;;;;14.90;9.85;;;;;;;8.95;86.01;102792.97;5017290;28;20060;-61
2022/01/29 06:02:11;;;;;;;14.20;8.98;;;;;;;8.83;86.23;102794.97;5034171;28;20107;-62
2022/01/29 06:04:38;;;;;;;15.73;8.80;;;;;;;9.03;86.27;102800.75;5034192;28;20057;-61
2022/01/29 06:07:06;;;;;;;14.20;9.48;;;;;;;8.92;86.23;102792.63;5034477;28;20056;-61
2022/01/29 06:09:33;;;;;;;12.57;8.75;;;;;;;9.00;85.77;102795.78;5034283;28;20494;-63
2022/01/29 06:12:00;;;;;;;14.25;9.55;;;;;;;8.79;87.01;102784.72;5029365;28;20404;-61
2022/01/29 06:14:28;;;;;;;14.60;10.02;;;;;;;8.68;87.68;102789.22;5034038;28;20056;-61
2022/01/29 06:16:55;;;;;;;14.07;9.65;;;;;;;8.77;87.34;102786.91;5033976;28;20123;-61
2022/01/29 06:19:23;;;;;;;15.45;10.13;;;;;;;8.66;88.22;102787.81;5033339;28;20416;-61
2022/01/29 06:21:50;;;;;;;13.93;9.88;;;;;;;8.73;88.21;102789.31;5016672;28;20505;-62
2022/01/29 06:24:18;;;;;;;14.70;9.80;;;;;;;8.80;87.97;102789.16;4999844;28;20054;-61
2022/01/29 06:26:45;;;;;;;14.90;9.68;;;;;;;8.74;87.79;102793.72;5034411;28;20504;-62
2022/01/29 06:29:12;;;;;;;14.77;9.00;;;;;;;8.82;87.91;102790.53;5034094;28;20045;-63
2022/01/29 06:31:39;;;;;;;12.90;8.82;;;;;;;8.85;87.56;102798.31;5033325;28;20048;-62
2022/01/29 06:34:07;;;;;;;13.05;8.55;;;;;;;8.92;87.15;102792.63;5015631;28;20049;-62
2022/01/29 06:36:34;;;;;;;12.52;8.90;;;;;;;8.88;87.85;102792.31;5033515;28;20049;-61
2022/01/29 06:39:01;;;;;;;13.68;8.65;;;;;;;8.77;88.10;102801.47;5016275;28;20374;-61
2022/01/29 06:41:29;;;;;;;14.15;7.95;;;;;;;8.96;88.11;102794.59;5033997;28;20050;-62
2022/01/29 06:43:56;;;;;;;10.60;7.55;;;;;;;8.94;87.66;102788.53;5034047;28;20042;-61
2022/01/29 06:46:24;;;;;;;12.27;7.82;;;;;;;8.97;88.15;102787.22;5015837;28;20551;-61
2022/01/29 06:48:52;;;;;;;12.35;7.25;;;;;;;9.10;87.05;102789.56;5003978;28;20056;-61
2022/01/29 06:51:20;;;;;;;11.75;7.45;;;;;;;9.06;87.49;102783.78;5029758;28;20786;-61
2022/01/29 06:53:47;;;;;;;10.40;6.65;;;;;;;8.96;87.53;102791.84;5016388;28;20057;-61
2022/01/29 06:56:14;;;;;;;10.18;6.97;;;;;;;8.84;88.63;102785.63;5015873;28;20064;-61
2022/01/29 06:58:41;;;;;;;10.43;7.30;;;;;;;9.02;88.46;102781.78;5019439;28;20049;-61
2022/01/29 07:01:29;;;;;;;14.20;7.35;;;;;;;9.19;87.87;102776.25;5036881;28;20045;-62
2022/01/29 07:03:56;;;;;;;11.23;6.50;;;;;;;9.26;88.04;102782.41;5037120;28;20053;-62
2022/01/29 07:06:23;;;;;;;9.85;6.47;;;;;;;9.22;87.38;102784.84;5036966;28;20072;-62
2022/01/29 07:08:51;;;;;;;11.82;7.03;;;;;;;9.11;87.21;102785.75;5037457;28;20480;-62
2022/01/29 07:11:20;;;;;;;10.00;6.50;;;;;;;9.03;88.17;102787.03;5018785;28;20160;-61
2022/01/29 07:13:48;;;;;;;9.25;6.40;;;;;;;9.21;88.03;102785.91;5037643;28;20072;-62
2022/01/29 07:16:15;;;;;;;12.27;6.60;;;;;;;9.26;87.58;102783.22;5037119;28;20053;-62
2022/01/29 07:18:42;;;;;;;10.93;7.45;;;;;;;9.12;87.08;102781.91;5018420;28;20492;-62
2022/01/29 07:21:10;;;;;;;11.35;6.93;;;;;;;9.03;87.72;102769.72;5036435;28;20068;-62
2022/01/29 07:23:37;;;;;;;12.95;6.57;;;;;;;9.13;87.78;102773.41;5037371;28;20045;-64
2022/01/29 07:26:05;;;;;;;10.60;5.93;;;;;;;9.08;87.61;102770.59;5036819;28;20042;-61
2022/01/29 07:28:33;;;;;;;11.20;5.97;;;;;;;9.24;87.21;102763.38;5019562;28;20432;-63
2022/01/29 07:31:01;;;;;;;8.70;5.60;;;;;;;9.12;87.77;102768.16;5036498;28;20408;-62
2022/01/29 07:33:28;;;;;;;9.38;6.28;;;;;;;9.05;87.70;102767.53;5036898;28;20049;-63
2022/01/29 07:35:56;;;;;;;9.88;6.22;;;;;;;9.09;88.14;102766.78;5036743;28;20108;-63
2022/01/29 07:38:24;;;;;;;8.25;5.25;;;;;;;9.05;88.17;102768.34;5036961;28;20072;-62
2022/01/29 07:40:51;;;;;;;8.57;5.28;;;;;;;8.99;88.46;102772.13;5036944;28;20072;-62
2022/01/29 07:43:19;;;;;;;8.50;5.50;;;;;;;9.14;88.40;102782.50;5036646;28;20060;-62
2022/01/29 07:45:46;;;;;;;8.95;5.07;;;;;;;9.32;87.64;102775.88;5036971;28;20037;-62
2022/01/29 07:48:13;;;;;;;10.90;5.32;;;;;;;9.16;87.87;102780.34;5036311;28;20063;-66
2022/01/29 07:50:41;;;;;;;8.10;4.78;;;;;;;9.32;87.86;102778.63;5019024;28;20053;-62
2022/01/29 07:53:08;;;;;;;7.47;4.50;;;;;;;9.72;86.45;102774.47;5036616;28;20045;-62
2022/01/29 07:55:36;;;;;;;7.07;4.32;;;;;;;9.55;86.29;102772.88;5046716;28;20049;-61
2022/01/29 07:58:05;;;;;;;8.80;4.63;;;;;;;9.36;86.51;102771.53;5020474;28;20057;-62
2022/01/29 08:00:36;;;;;;;8.27;4.72;;;;;;;9.34;87.34;102774.53;5019555;28;20054;-65
2022/01/29 08:03:13;;;;;;;7.32;4.32;;;;;;;9.30;87.72;102773.38;4973803;28;20405;-66
2022/01/29 08:05:41;;;;;;;7.28;4.05;;;;;;;9.30;88.13;102772.53;5036583;28;20053;-65
2022/01/29 08:08:16;;;;;;;8.20;3.60;;;;;;;9.35;88.20;102776.19;5035892;28;20053;-65
2022/01/29 08:10:48;;;;;;;8.63;3.70;;;;;;;9.43;88.06;102766.69;5036570;28;20049;-65
2022/01/29 08:13:15;;;;;;;7.10;3.80;;;;;;;9.56;87.45;102767.09;5002636;28;20060;-66
2022/01/29 08:15:42;;;;;;;6.40;3.70;;;;;;;9.84;87.65;102769.63;5036658;28;20116;-66
2022/01/29 08:18:10;;;;;;;6.05;3.30;;;;;;;9.81;86.27;102772.91;5018485;28;20056;-65
2022/01/29 08:20:37;;;;;;;6.15;3.53;;;;;;;9.68;86.50;102769.72;5036273;28;20053;-65
2022/01/29 08:23:08;;;;;;;6.20;3.40;;;;;;;9.71;87.06;102766.47;5036039;28;20049;-66
2022/01/29 08:25:37;;;;;;;6.35;3.58;;;;;;;9.87;86.19;102760.84;5018592;28;20536;-64
2022/01/29 08:28:05;;;;;;;5.90;3.10;;;;;;;9.62;86.99;102757.00;5017875;28;20045;-66
2022/01/29 08:30:33;;;;;;;8.85;3.72;;;;;;;9.71;87.04;102760.97;5032256;28;20042;-65
2022/01/29 08:33:00;;;;;;;6.60;3.22;;;;;;;9.57;87.27;102760.50;5028757;28;20050;-65
2022/01/29 08:35:27;;;;;;;5.15;3.13;;;;;;;9.52;87.98;102763.19;5035945;28;20048;-65
2022/01/29 08:37:57;;;;;;;6.20;3.05;;;;;;;9.72;88.13;102768.97;5035154;28;20064;-65
2022/01/29 08:40:25;;;;;;;5.65;2.92;;;;;;;9.78;87.64;102765.16;5017681;28;20053;-65
2022/01/29 08:42:53;;;;;;;7.28;3.00;;;;;;;9.62;87.53;102776.25;5035479;28;20057;-65
2022/01/29 08:45:21;;;;;;;5.70;3.08;;;;;;;9.74;88.14;102772.28;5035811;28;20041;-65
2022/01/29 08:47:48;;;;;;;6.93;3.00;;;;;;;9.83;87.89;102767.16;5018208;28;20056;-65
2022/01/29 08:50:15;;;;;;;4.97;2.70;;;;;;;9.50;88.79;102761.81;5016792;28;20042;-66
2022/01/29 08:52:43;;;;;;;5.03;2.70;;;;;;;9.57;89.15;102765.19;5034384;28;20061;-65
2022/01/29 08:55:10;;;;;;;6.32;3.30;;;;;;;9.43;89.67;102766.69;5034860;28;20046;-66
2022/01/29 08:57:38;;;;;;;5.90;2.80;;;;;;;9.57;89.42;102763.25;5017013;28;20049;-66
2022/01/29 09:00:08;;;;;;;5.90;2.90;;;;;;;9.90;90.15;102768.59;5033538;28;20064;-66
2022/01/29 09:02:35;;;;;;;5.75;2.38;;;;;;;9.80;89.28;102765.72;5015815;28;20037;-66
2022/01/29 09:05:04;;;;;;;6.55;2.78;;;;;;;9.82;90.06;102762.72;5033070;28;20041;-63
2022/01/29 09:07:33;;;;;;;5.22;2.13;;;;;;;10.22;89.33;102762.34;5035422;28;20045;-62
2022/01/29 09:10:01;;;;;;;7.27;2.87;;;;;;;10.32;88.33;102763.25;5017201;28;20042;-65
2022/01/29 09:12:30;;;;;;;3.30;1.80;;;;;;;10.42;87.76;102755.09;5034189;28;20045;-64
2022/01/29 09:14:57;;;;;;;3.28;1.90;;;;;;;10.56;87.05;102755.47;5000609;28;20069;-67
2022/01/29 09:17:24;;;;;;;5.00;2.10;;;;;;;10.78;85.96;102746.00;5033535;28;20056;-64
2022/01/29 09:19:52;;;;;;;4.53;2.20;;;;;;;10.66;84.35;102756.38;5031935;28;20612;-64
2022/01/29 09:22:19;;;;;;;4.93;2.20;;;;;;;10.80;84.02;102752.06;5015883;28;20061;-64
2022/01/29 09:24:46;;;;;;;4.25;2.20;;;;;;;10.93;82.94;102750.78;5027404;28;20057;-64
2022/01/29 09:27:14;;;;;;;5.13;2.63;;;;;;;10.69;83.62;102755.84;5031771;28;20045;-64
2022/01/29 09:29:42;;;;;;;4.60;2.50;;;;;;;10.55;84.39;102749.13;5027343;28;20046;-66
2022/01/29 09:32:14;;;;;;;7.32;2.50;;;;;;;10.68;83.96;102747.84;5016620;28;20531;-65
2022/01/29 09:34:41;;;;;;;4.72;2.63;;;;;;;10.77;84.19;102747.09;5034992;28;20049;-66
2022/01/29 09:37:09;;;;;;;5.68;2.40;;;;;;;10.90;83.15;102746.63;5031557;28;20048;-67
2022/01/29 09:39:36;;;;;;;6.53;2.72;;;;;;;10.94;82.46;102735.88;5038763;28;20061;-65
2022/01/29 09:42:04;;;;;;;5.00;2.50;;;;;;;11.18;82.62;102749.00;5017471;28;20045;-66
2022/01/29 09:44:34;;;;;;;6.68;2.78;;;;;;;11.49;80.67;102736.16;5035532;28;20432;-65
2022/01/29 09:47:03;;;;;;;5.50;2.55;;;;;;;11.50;79.37;102737.81;5017201;28;20045;-64
2022/01/29 09:49:32;;;;;;;13.15;6.97;;;;;;;11.32;80.93;102730.00;4980625;28;20057;-66
2022/01/29 09:52:01;;;;;;;6.05;3.10;;;;;;;11.61;79.65;102724.88;5029286;28;20053;-65
2022/01/29 09:54:28;;;;;;;5.95;2.35;;;;;;;11.29;79.88;102736.91;5010246;28;20153;-65
2022/01/29 09:56:55;;;;;;;4.85;2.47;;;;;;;11.18;80.33;102740.72;5016230;28;20048;-64
2022/01/29 09:59:23;;;;;;;4.35;2.45;;;;;;;11.07;80.75;102747.25;5033305;28;20163;-66
2022/01/29 10:01:50;;;;;;;8.85;2.80;;;;;;;11.00;81.10;102746.66;5026147;28;20053;-70
2022/01/29 10:04:18;;;;;;;6.57;2.80;;;;;;;10.96;81.96;102745.56;5015519;28;20056;-62
2022/01/29 10:07:25;;;;;;;4.97;2.88;;;;;;;10.91;82.67;102759.28;5020847;28;20042;-64
2022/01/29 10:09:53;;;;;;;7.28;3.83;;;;;;;10.48;84.48;102765.03;5013744;28;20065;-64
2022/01/29 10:12:30;;;;;;;5.93;3.35;;;;;;;10.53;85.65;102754.06;5032980;28;20037;-66
2022/01/29 10:15:07;;;;;;;6.88;3.22;;;;;;;10.71;85.08;102764.69;5034083;28;20055;-66
2022/01/29 10:17:51;;;;;;;7.30;3.20;;;;;;;10.31;85.36;102758.00;5033212;28;20054;-64
2022/01/29 10:20:25;;;;;;;6.10;3.78;;;;;;;10.48;85.84;102756.78;5034116;28;20050;-66
2022/01/29 10:22:58;;;;;;;6.03;3.10;;;;;;;10.37;85.78;102759.72;5034013;28;20061;-65
2022/01/29 10:25:28;;;;;;;8.23;3.00;;;;;;;10.21;86.63;102756.00;5031534;28;20061;-66
2022/01/29 10:28:19;;;;;;;5.13;2.70;;;;;;;10.42;86.26;102766.13;5020738;28;20417;-66
2022/01/29 10:30:49;;;;;;;4.30;2.28;;;;;;;10.34;86.42;102758.31;5017243;28;20049;-65
2022/01/29 10:33:23;;;;;;;4.35;2.55;;;;;;;10.30;86.55;102759.94;5027536;28;20045;-65
2022/01/29 10:35:53;;;;;;;8.27;3.63;;;;;;;10.63;85.95;102756.09;5020618;28;20062;-65
2022/01/29 10:38:26;;;;;;;6.00;2.30;;;;;;;10.40;85.43;102750.94;5016936;28;20440;-67
2022/01/29 10:41:12;;;;;;;4.40;2.28;;;;;;;10.31;85.97;102758.84;5039709;28;20053;-65
2022/01/29 10:44:09;;;;;;;3.40;1.77;;;;;;;10.42;86.25;102755.09;5027424;28;20057;-64
2022/01/29 10:46:41;;;;;;;4.30;2.47;;;;;;;10.60;85.77;102757.44;5037066;28;20481;-65
2022/01/29 10:49:37;;;;;;;3.97;1.98;;;;;;;10.88;84.65;102742.47;5038219;28;20057;-64
2022/01/29 10:52:12;;;;;;;5.25;2.17;;;;;;;10.79;84.52;102747.63;5038235;28;20527;-66
2022/01/29 10:54:42;;;;;;;5.43;2.38;;;;;;;10.59;84.55;102755.78;5037925;28;20049;-65
2022/01/29 10:57:17;;;;;;;4.63;2.28;;;;;;;10.55;84.87;102749.13;5032055;28;20049;-65
2022/01/29 10:59:47;;;;;;;5.07;2.40;;;;;;;10.56;85.16;102749.97;5037639;28;20065;-65
2022/01/29 11:02:15;;;;;;;4.40;2.15;;;;;;;10.67;86.05;102748.94;5019511;28;20068;-66
2022/01/29 11:04:43;;;;;;;2.95;1.98;;;;;;;10.62;84.11;102752.47;5020875;28;20400;-65
2022/01/29 11:07:24;;;;;;;3.72;1.95;;;;;;;10.46;84.47;102755.41;5038364;28;20045;-65
2022/01/29 11:09:51;;;;;;;5.55;2.30;;;;;;;10.45;86.69;102754.56;5021580;28;20072;-65
2022/01/29 11:12:20;;;;;;;5.15;2.10;;;;;;;10.51;85.42;102763.69;5038274;28;20053;-66
2022/01/29 11:14:50;;;;;;;4.60;1.90;;;;;;;10.76;84.73;102747.34;5035462;28;20512;-65
2022/01/29 11:17:21;;;;;;;4.72;2.15;;;;;;;10.60;84.27;102762.94;5034410;28;20046;-66
2022/01/29 11:19:48;;;;;;;4.93;2.05;;;;;;;10.44;85.53;102763.09;5036198;28;20050;-65
2022/01/29 11:22:22;;;;;;;3.88;1.88;;;;;;;10.68;89.08;102767.97;5037326;28;20064;-66
2022/01/29 11:24:56;;;;;;;3.75;1.70;;;;;;;11.42;84.32;102757.63;5031511;28;20046;-66
2022/01/29 11:27:42;;;;;;;3.47;1.60;;;;;;;11.36;83.35;102758.72;5034690;28;20053;-66
2022/01/29 11:30:09;;;;;;;3.63;1.95;;;;;;;11.21;82.50;102755.88;5027962;28;20053;-65
2022/01/29 11:32:55;;;;;;;3.08;1.55;;;;;;;11.11;82.96;102759.44;5032485;28;20041;-64
2022/01/29 11:35:29;;;;;;;7.47;1.80;;;;;;;10.82;83.99;102754.56;5032112;28;20413;-65
2022/01/29 11:38:02;;;;;;;2.95;1.75;;;;;;;10.56;85.46;102753.56;5016778;28;20053;-64
2022/01/29 11:40:44;;;;;;;3.75;1.85;;;;;;;10.78;85.43;102753.41;5032738;28;20061;-64
2022/01/29 11:43:14;;;;;;;3.03;1.60;;;;;;;10.53;86.23;102758.75;5043307;28;20052;-65
2022/01/29 11:45:51;;;;;;;2.67;1.50;;;;;;;10.71;86.27;102753.66;5041467;28;20045;-64
2022/01/29 11:48:29;;;;;;;6.10;2.03;;;;;;;10.78;86.12;102748.75;5037332;28;20057;-67